sensor_id;sensor_type;location;lat;lon;timestamp;temperature;humidity
2523;DHT22;1272;53.332;9.860;2023-05-07T00:01:45;9.20;99.90
2523;DHT22;1272;53.332;9.860;2023-05-07T00:04:11;9.20;99.90
2523;DHT22;1272;53.332;9.860;2023-05-07T00:06:37;9.20;99.90
2523;DHT22;1272;53.332;9.860;2023-05-07T00:09:03;9.20;99.90
2523;DHT22;1272;53.332;9.860;2023-05-07T00:11:29;9.20;99.90
2523;DHT22;1272;53.332;9.860;2023-05-07T00:13:55;9.20;99.90
2523;DHT22;1272;53.332;9.860;2023-05-07T00:16:21;9.20;99.90
2523;DHT22;1272;53.332;9.860;2023-05-07T00:18:47;9.20;99.90
2523;DHT22;1272;53.332;9.860;2023-05-07T00:21:13;9.20;99.90
2523;DHT22;1272;53.332;9.860;2023-05-07T00:23:39;9.10;99.90
2523;DHT22;1272;53.332;9.860;2023-05-07T00:26:05;9.20;99.90
2523;DHT22;1272;53.332;9.860;2023-05-07T00:28:30;9.20;99.90
2523;DHT22;1272;53.332;9.860;2023-05-07T00:30:56;9.20;99.90
2523;DHT22;1272;53.332;9.860;2023-05-07T00:33:22;9.20;99.90
2523;DHT22;1272;53.332;9.860;2023-05-07T00:35:48;9.20;99.90
2523;DHT22;1272;53.332;9.860;2023-05-07T00:38:14;9.10;99.90
2523;DHT22;1272;53.332;9.860;2023-05-07T00:40:40;9.20;99.90
2523;DHT22;1272;53.332;9.860;2023-05-07T00:43:06;9.30;99.90
2523;DHT22;1272;53.332;9.860;2023-05-07T00:45:33;9.20;99.90
2523;DHT22;1272;53.332;9.860;2023-05-07T00:48:00;9.20;99.90
2523;DHT22;1272;53.332;9.860;2023-05-07T00:50:28;9.20;99.90
2523;DHT22;1272;53.332;9.860;2023-05-07T00:52:55;9.20;99.90
2523;DHT22;1272;53.332;9.860;2023-05-07T00:55:22;9.30;99.90
2523;DHT22;1272;53.332;9.860;2023-05-07T00:57:50;9.30;99.90
2523;DHT22;1272;53.332;9.860;2023-05-07T01:00:17;9.20;99.90
2523;DHT22;1272;53.332;9.860;2023-05-07T01:02:43;9.20;99.90
2523;DHT22;1272;53.332;9.860;2023-05-07T01:05:15;9.20;99.90
2523;DHT22;1272;53.332;9.860;2023-05-07T01:07:42;9.20;99.90
2523;DHT22;1272;53.332;9.860;2023-05-07T01:10:09;9.20;99.90
2523;DHT22;1272;53.332;9.860;2023-05-07T01:12:37;9.20;99.90
2523;DHT22;1272;53.332;9.860;2023-05-07T01:15:03;9.10;99.90
2523;DHT22;1272;53.332;9.860;2023-05-07T01:17:37;9.20;99.90
2523;DHT22;1272;53.332;9.860;2023-05-07T01:20:05;9.20;99.90
2523;DHT22;1272;53.332;9.860;2023-05-07T01:22:33;9.20;99.90
2523;DHT22;1272;53.332;9.860;2023-05-07T01:25:00;9.20;99.90
2523;DHT22;1272;53.332;9.860;2023-05-07T01:27:27;9.20;99.90
2523;DHT22;1272;53.332;9.860;2023-05-07T01:29:53;9.20;99.90
2523;DHT22;1272;53.332;9.860;2023-05-07T01:32:30;9.20;99.90
2523;DHT22;1272;53.332;9.860;2023-05-07T01:34:58;9.20;99.90
2523;DHT22;1272;53.332;9.860;2023-05-07T01:37:25;9.20;99.90
2523;DHT22;1272;53.332;9.860;2023-05-07T01:39:52;9.20;99.90
2523;DHT22;1272;53.332;9.860;2023-05-07T01:42:18;9.20;99.90
2523;DHT22;1272;53.332;9.860;2023-05-07T01:44:44;9.20;99.90
2523;DHT22;1272;53.332;9.860;2023-05-07T01:47:10;9.20;99.90
2523;DHT22;1272;53.332;9.860;2023-05-07T01:49:37;9.20;99.90
2523;DHT22;1272;53.332;9.860;2023-05-07T01:52:03;9.20;99.90
2523;DHT22;1272;53.332;9.860;2023-05-07T01:54:28;9.10;99.90
2523;DHT22;1272;53.332;9.860;2023-05-07T01:56:56;9.10;99.90
2523;DHT22;1272;53.332;9.860;2023-05-07T01:59:22;9.10;99.90
2523;DHT22;1272;53.332;9.860;2023-05-07T02:01:48;9.10;99.90
2523;DHT22;1272;53.332;9.860;2023-05-07T02:04:14;9.10;99.90
2523;DHT22;1272;53.332;9.860;2023-05-07T02:06:40;9.10;99.90
2523;DHT22;1272;53.332;9.860;2023-05-07T02:09:05;9.10;99.90
2523;DHT22;1272;53.332;9.860;2023-05-07T02:11:31;9.20;99.90
2523;DHT22;1272;53.332;9.860;2023-05-07T02:13:57;9.20;99.90
2523;DHT22;1272;53.332;9.860;2023-05-07T02:16:22;9.20;99.90
2523;DHT22;1272;53.332;9.860;2023-05-07T02:18:49;9.10;99.90
2523;DHT22;1272;53.332;9.860;2023-05-07T02:21:15;9.10;99.90
2523;DHT22;1272;53.332;9.860;2023-05-07T02:23:40;9.10;99.90
2523;DHT22;1272;53.332;9.860;2023-05-07T02:26:06;9.10;99.90
2523;DHT22;1272;53.332;9.860;2023-05-07T02:28:32;9.10;99.90
2523;DHT22;1272;53.332;9.860;2023-05-07T02:31:02;9.10;99.90
2523;DHT22;1272;53.332;9.860;2023-05-07T02:33:28;9.20;99.90
2523;DHT22;1272;53.332;9.860;2023-05-07T02:35:53;9.10;99.90
2523;DHT22;1272;53.332;9.860;2023-05-07T02:38:19;9.10;99.90
2523;DHT22;1272;53.332;9.860;2023-05-07T02:40:45;9.10;99.90
2523;DHT22;1272;53.332;9.860;2023-05-07T02:43:10;9.10;99.90
2523;DHT22;1272;53.332;9.860;2023-05-07T02:45:36;9.10;99.90
2523;DHT22;1272;53.332;9.860;2023-05-07T02:48:03;9.20;99.90
2523;DHT22;1272;53.332;9.860;2023-05-07T02:50:29;9.20;99.90
2523;DHT22;1272;53.332;9.860;2023-05-07T02:52:55;9.20;99.90
2523;DHT22;1272;53.332;9.860;2023-05-07T02:55:21;9.20;99.90
2523;DHT22;1272;53.332;9.860;2023-05-07T02:57:46;9.20;99.90
2523;DHT22;1272;53.332;9.860;2023-05-07T03:00:14;9.20;99.90
2523;DHT22;1272;53.332;9.860;2023-05-07T03:02:41;9.20;99.90
2523;DHT22;1272;53.332;9.860;2023-05-07T03:05:06;9.20;99.90
2523;DHT22;1272;53.332;9.860;2023-05-07T03:07:33;9.10;99.90
2523;DHT22;1272;53.332;9.860;2023-05-07T03:09:58;9.20;99.90
2523;DHT22;1272;53.332;9.860;2023-05-07T03:12:25;9.10;99.90
2523;DHT22;1272;53.332;9.860;2023-05-07T03:14:51;9.10;99.90
2523;DHT22;1272;53.332;9.860;2023-05-07T03:17:16;9.10;99.90
2523;DHT22;1272;53.332;9.860;2023-05-07T03:19:42;9.10;99.90
2523;DHT22;1272;53.332;9.860;2023-05-07T03:22:08;9.10;99.90
2523;DHT22;1272;53.332;9.860;2023-05-07T03:24:33;9.10;99.90
2523;DHT22;1272;53.332;9.860;2023-05-07T03:26:59;9.20;99.90
2523;DHT22;1272;53.332;9.860;2023-05-07T03:29:26;9.10;99.90
2523;DHT22;1272;53.332;9.860;2023-05-07T03:31:52;9.20;99.90
2523;DHT22;1272;53.332;9.860;2023-05-07T03:34:18;9.10;99.90
2523;DHT22;1272;53.332;9.860;2023-05-07T03:36:48;9.20;99.90
2523;DHT22;1272;53.332;9.860;2023-05-07T03:39:14;9.20;99.90
2523;DHT22;1272;53.332;9.860;2023-05-07T03:41:40;9.10;99.90
2523;DHT22;1272;53.332;9.860;2023-05-07T03:44:05;9.10;99.90
2523;DHT22;1272;53.332;9.860;2023-05-07T03:46:31;9.10;99.90
2523;DHT22;1272;53.332;9.860;2023-05-07T03:48:58;9.10;99.90
2523;DHT22;1272;53.332;9.860;2023-05-07T03:51:24;9.00;99.90
2523;DHT22;1272;53.332;9.860;2023-05-07T03:53:49;9.10;99.90
2523;DHT22;1272;53.332;9.860;2023-05-07T03:56:18;9.10;99.90
2523;DHT22;1272;53.332;9.860;2023-05-07T03:58:44;9.10;99.90
2523;DHT22;1272;53.332;9.860;2023-05-07T04:01:11;9.10;99.90
2523;DHT22;1272;53.332;9.860;2023-05-07T04:03:37;9.10;99.90
2523;DHT22;1272;53.332;9.860;2023-05-07T04:06:03;9.10;99.90
2523;DHT22;1272;53.332;9.860;2023-05-07T04:08:28;9.10;99.90
2523;DHT22;1272;53.332;9.860;2023-05-07T04:10:55;9.10;99.90
2523;DHT22;1272;53.332;9.860;2023-05-07T04:13:21;9.10;99.90
2523;DHT22;1272;53.332;9.860;2023-05-07T04:15:47;9.10;99.90
2523;DHT22;1272;53.332;9.860;2023-05-07T04:18:14;9.10;99.90
2523;DHT22;1272;53.332;9.860;2023-05-07T04:20:40;9.20;99.90
2523;DHT22;1272;53.332;9.860;2023-05-07T04:23:06;9.20;99.90
2523;DHT22;1272;53.332;9.860;2023-05-07T04:25:32;9.20;99.90
2523;DHT22;1272;53.332;9.860;2023-05-07T04:27:58;9.20;99.90
2523;DHT22;1272;53.332;9.860;2023-05-07T04:30:24;9.20;99.90
2523;DHT22;1272;53.332;9.860;2023-05-07T04:32:50;9.10;99.90
2523;DHT22;1272;53.332;9.860;2023-05-07T04:35:16;9.10;99.90
2523;DHT22;1272;53.332;9.860;2023-05-07T04:37:42;9.20;99.90
2523;DHT22;1272;53.332;9.860;2023-05-07T04:40:08;9.20;99.90
2523;DHT22;1272;53.332;9.860;2023-05-07T04:42:33;9.10;99.90
2523;DHT22;1272;53.332;9.860;2023-05-07T04:44:59;9.10;99.90
2523;DHT22;1272;53.332;9.860;2023-05-07T04:47:25;9.20;99.90
2523;DHT22;1272;53.332;9.860;2023-05-07T04:49:51;9.20;99.90
2523;DHT22;1272;53.332;9.860;2023-05-07T04:52:17;9.20;99.90
2523;DHT22;1272;53.332;9.860;2023-05-07T04:54:42;9.10;99.90
2523;DHT22;1272;53.332;9.860;2023-05-07T04:57:08;9.20;99.90
2523;DHT22;1272;53.332;9.860;2023-05-07T04:59:34;9.20;99.90
2523;DHT22;1272;53.332;9.860;2023-05-07T05:01:59;9.20;99.90
2523;DHT22;1272;53.332;9.860;2023-05-07T05:04:25;9.20;99.90
2523;DHT22;1272;53.332;9.860;2023-05-07T05:06:51;9.10;99.90
2523;DHT22;1272;53.332;9.860;2023-05-07T05:09:17;9.10;99.90
2523;DHT22;1272;53.332;9.860;2023-05-07T05:11:42;9.10;99.90
2523;DHT22;1272;53.332;9.860;2023-05-07T05:14:08;9.20;99.90
2523;DHT22;1272;53.332;9.860;2023-05-07T05:16:34;9.20;99.90
2523;DHT22;1272;53.332;9.860;2023-05-07T05:19:01;9.20;99.90
2523;DHT22;1272;53.332;9.860;2023-05-07T05:21:26;9.20;99.90
2523;DHT22;1272;53.332;9.860;2023-05-07T05:23:52;9.30;99.90
2523;DHT22;1272;53.332;9.860;2023-05-07T05:26:18;9.30;99.90
2523;DHT22;1272;53.332;9.860;2023-05-07T05:28:44;9.30;99.90
2523;DHT22;1272;53.332;9.860;2023-05-07T05:31:10;9.30;99.90
2523;DHT22;1272;53.332;9.860;2023-05-07T05:33:36;9.30;99.90
2523;DHT22;1272;53.332;9.860;2023-05-07T05:36:01;9.20;99.90
2523;DHT22;1272;53.332;9.860;2023-05-07T05:38:27;9.30;99.90
2523;DHT22;1272;53.332;9.860;2023-05-07T05:40:52;9.20;99.90
2523;DHT22;1272;53.332;9.860;2023-05-07T05:43:18;9.30;99.90
2523;DHT22;1272;53.332;9.860;2023-05-07T05:45:44;9.30;99.90
2523;DHT22;1272;53.332;9.860;2023-05-07T05:48:09;9.30;99.90
2523;DHT22;1272;53.332;9.860;2023-05-07T05:50:35;9.40;99.90
2523;DHT22;1272;53.332;9.860;2023-05-07T05:53:02;9.30;99.90
2523;DHT22;1272;53.332;9.860;2023-05-07T05:55:28;9.40;99.90
2523;DHT22;1272;53.332;9.860;2023-05-07T05:57:53;9.40;99.90
2523;DHT22;1272;53.332;9.860;2023-05-07T06:00:19;9.50;99.90
2523;DHT22;1272;53.332;9.860;2023-05-07T06:02:48;9.50;99.90
2523;DHT22;1272;53.332;9.860;2023-05-07T06:05:14;9.40;99.90
2523;DHT22;1272;53.332;9.860;2023-05-07T06:07:40;9.40;99.90
2523;DHT22;1272;53.332;9.860;2023-05-07T06:10:06;9.40;99.90
2523;DHT22;1272;53.332;9.860;2023-05-07T06:12:32;9.50;99.90
2523;DHT22;1272;53.332;9.860;2023-05-07T06:14:58;9.50;99.90
2523;DHT22;1272;53.332;9.860;2023-05-07T06:17:23;9.50;99.90
2523;DHT22;1272;53.332;9.860;2023-05-07T06:19:49;9.50;99.90
2523;DHT22;1272;53.332;9.860;2023-05-07T06:22:15;9.60;99.90
2523;DHT22;1272;53.332;9.860;2023-05-07T06:24:40;9.60;99.90
2523;DHT22;1272;53.332;9.860;2023-05-07T06:27:08;9.60;99.90
2523;DHT22;1272;53.332;9.860;2023-05-07T06:29:33;9.70;99.90
2523;DHT22;1272;53.332;9.860;2023-05-07T06:32:10;9.70;99.90
2523;DHT22;1272;53.332;9.860;2023-05-07T06:34:36;9.70;99.90
2523;DHT22;1272;53.332;9.860;2023-05-07T06:37:02;9.70;99.90
2523;DHT22;1272;53.332;9.860;2023-05-07T06:39:28;9.70;99.90
2523;DHT22;1272;53.332;9.860;2023-05-07T06:41:53;9.80;99.90
2523;DHT22;1272;53.332;9.860;2023-05-07T06:44:19;9.80;99.90
2523;DHT22;1272;53.332;9.860;2023-05-07T06:46:45;9.80;99.90
2523;DHT22;1272;53.332;9.860;2023-05-07T06:49:13;9.90;99.90
2523;DHT22;1272;53.332;9.860;2023-05-07T06:51:39;9.90;99.90
2523;DHT22;1272;53.332;9.860;2023-05-07T06:54:05;9.90;99.90
2523;DHT22;1272;53.332;9.860;2023-05-07T06:56:31;9.90;99.90
2523;DHT22;1272;53.332;9.860;2023-05-07T06:58:57;9.90;99.90
2523;DHT22;1272;53.332;9.860;2023-05-07T07:01:23;9.90;99.90
2523;DHT22;1272;53.332;9.860;2023-05-07T07:03:48;9.90;99.90
2523;DHT22;1272;53.332;9.860;2023-05-07T07:06:14;9.90;99.90
2523;DHT22;1272;53.332;9.860;2023-05-07T07:08:40;9.90;99.90
2523;DHT22;1272;53.332;9.860;2023-05-07T07:11:06;9.90;99.90
2523;DHT22;1272;53.332;9.860;2023-05-07T07:13:31;10.00;99.90
2523;DHT22;1272;53.332;9.860;2023-05-07T07:15:57;10.00;99.90
2523;DHT22;1272;53.332;9.860;2023-05-07T07:18:23;10.00;99.90
2523;DHT22;1272;53.332;9.860;2023-05-07T07:20:49;10.10;99.90
2523;DHT22;1272;53.332;9.860;2023-05-07T07:23:14;10.20;99.90
2523;DHT22;1272;53.332;9.860;2023-05-07T07:25:40;10.20;99.90
2523;DHT22;1272;53.332;9.860;2023-05-07T07:28:06;10.20;99.90
2523;DHT22;1272;53.332;9.860;2023-05-07T07:30:32;10.20;99.90
2523;DHT22;1272;53.332;9.860;2023-05-07T07:32:59;10.40;99.90
2523;DHT22;1272;53.332;9.860;2023-05-07T07:35:37;10.40;99.90
2523;DHT22;1272;53.332;9.860;2023-05-07T07:38:02;10.50;99.90
2523;DHT22;1272;53.332;9.860;2023-05-07T07:40:28;10.50;99.90
2523;DHT22;1272;53.332;9.860;2023-05-07T07:42:56;10.50;99.90
2523;DHT22;1272;53.332;9.860;2023-05-07T07:45:23;10.50;99.90
2523;DHT22;1272;53.332;9.860;2023-05-07T07:47:49;10.50;99.90
2523;DHT22;1272;53.332;9.860;2023-05-07T07:50:14;10.50;99.90
2523;DHT22;1272;53.332;9.860;2023-05-07T07:52:40;10.60;99.90
2523;DHT22;1272;53.332;9.860;2023-05-07T07:55:06;10.60;99.90
2523;DHT22;1272;53.332;9.860;2023-05-07T07:57:33;10.60;99.90
2523;DHT22;1272;53.332;9.860;2023-05-07T07:59:58;10.70;99.90
2523;DHT22;1272;53.332;9.860;2023-05-07T08:02:24;10.70;99.90
2523;DHT22;1272;53.332;9.860;2023-05-07T08:04:50;10.70;99.90
2523;DHT22;1272;53.332;9.860;2023-05-07T08:07:16;10.70;99.90
2523;DHT22;1272;53.332;9.860;2023-05-07T08:09:43;10.80;99.90
2523;DHT22;1272;53.332;9.860;2023-05-07T08:12:09;10.80;99.90
2523;DHT22;1272;53.332;9.860;2023-05-07T08:14:36;10.80;99.90
2523;DHT22;1272;53.332;9.860;2023-05-07T08:17:02;10.90;99.90
2523;DHT22;1272;53.332;9.860;2023-05-07T08:19:28;11.00;99.90
2523;DHT22;1272;53.332;9.860;2023-05-07T08:21:54;11.00;99.90
2523;DHT22;1272;53.332;9.860;2023-05-07T08:24:21;11.10;99.90
2523;DHT22;1272;53.332;9.860;2023-05-07T08:26:47;11.10;99.90
2523;DHT22;1272;53.332;9.860;2023-05-07T08:29:13;11.20;99.90
2523;DHT22;1272;53.332;9.860;2023-05-07T08:31:38;11.20;99.90
2523;DHT22;1272;53.332;9.860;2023-05-07T08:34:05;11.30;99.90
2523;DHT22;1272;53.332;9.860;2023-05-07T08:36:32;11.40;99.90
2523;DHT22;1272;53.332;9.860;2023-05-07T08:38:58;11.40;99.90
2523;DHT22;1272;53.332;9.860;2023-05-07T08:41:24;11.40;99.90
2523;DHT22;1272;53.332;9.860;2023-05-07T08:43:50;11.30;99.90
2523;DHT22;1272;53.332;9.860;2023-05-07T08:46:21;11.30;99.90
2523;DHT22;1272;53.332;9.860;2023-05-07T08:48:51;11.30;99.90
2523;DHT22;1272;53.332;9.860;2023-05-07T08:51:19;11.30;99.90
2523;DHT22;1272;53.332;9.860;2023-05-07T08:53:47;11.30;99.90
2523;DHT22;1272;53.332;9.860;2023-05-07T08:56:17;11.50;99.90
2523;DHT22;1272;53.332;9.860;2023-05-07T08:58:43;11.60;99.90
2523;DHT22;1272;53.332;9.860;2023-05-07T09:01:13;11.60;99.90
2523;DHT22;1272;53.332;9.860;2023-05-07T09:03:40;11.70;99.90
2523;DHT22;1272;53.332;9.860;2023-05-07T09:06:06;11.70;99.90
2523;DHT22;1272;53.332;9.860;2023-05-07T09:08:35;11.80;99.90
2523;DHT22;1272;53.332;9.860;2023-05-07T09:11:01;11.90;99.90
2523;DHT22;1272;53.332;9.860;2023-05-07T09:13:28;11.80;99.90
2523;DHT22;1272;53.332;9.860;2023-05-07T09:15:53;11.80;99.90
2523;DHT22;1272;53.332;9.860;2023-05-07T09:18:19;11.80;99.90
2523;DHT22;1272;53.332;9.860;2023-05-07T09:20:45;11.80;99.90
2523;DHT22;1272;53.332;9.860;2023-05-07T09:23:12;11.80;99.90
2523;DHT22;1272;53.332;9.860;2023-05-07T09:25:37;11.90;99.90
2523;DHT22;1272;53.332;9.860;2023-05-07T09:28:04;11.90;99.90
2523;DHT22;1272;53.332;9.860;2023-05-07T09:30:34;11.90;99.90
2523;DHT22;1272;53.332;9.860;2023-05-07T09:33:03;12.00;99.90
2523;DHT22;1272;53.332;9.860;2023-05-07T09:35:30;12.10;99.90
2523;DHT22;1272;53.332;9.860;2023-05-07T09:37:59;12.20;99.90
2523;DHT22;1272;53.332;9.860;2023-05-07T09:40:30;12.30;99.90
2523;DHT22;1272;53.332;9.860;2023-05-07T09:42:56;12.40;99.90
2523;DHT22;1272;53.332;9.860;2023-05-07T09:45:26;12.50;93.80
2523;DHT22;1272;53.332;9.860;2023-05-07T09:47:56;12.50;46.90
2523;DHT22;1272;53.332;9.860;2023-05-07T09:50:32;12.60;83.60
2523;DHT22;1272;53.332;9.860;2023-05-07T09:52:58;12.70;83.70
2523;DHT22;1272;53.332;9.860;2023-05-07T09:55:25;12.70;48.30
2523;DHT22;1272;53.332;9.860;2023-05-07T09:57:52;12.70;24.10
2523;DHT22;1272;53.332;9.860;2023-05-07T10:00:22;12.70;30.20
2523;DHT22;1272;53.332;9.860;2023-05-07T10:02:49;12.70;2.70
2523;DHT22;1272;53.332;9.860;2023-05-07T10:05:18;12.70;1.00
2523;DHT22;1272;53.332;9.860;2023-05-07T10:07:45;12.70;99.90
2523;DHT22;1272;53.332;9.860;2023-05-07T10:10:12;12.70;38.10
2523;DHT22;1272;53.332;9.860;2023-05-07T10:12:38;12.70;1.00
2523;DHT22;1272;53.332;9.860;2023-05-07T10:15:09;12.80;1.00
2523;DHT22;1272;53.332;9.860;2023-05-07T10:17:39;12.70;1.00
2523;DHT22;1272;53.332;9.860;2023-05-07T10:20:06;12.70;1.00
2523;DHT22;1272;53.332;9.860;2023-05-07T10:22:41;12.70;1.00
2523;DHT22;1272;53.332;9.860;2023-05-07T10:25:18;12.70;1.00
2523;DHT22;1272;53.332;9.860;2023-05-07T10:27:45;12.70;1.00
2523;DHT22;1272;53.332;9.860;2023-05-07T10:32:46;12.80;99.90
2523;DHT22;1272;53.332;9.860;2023-05-07T10:35:27;12.80;99.90
2523;DHT22;1272;53.332;9.860;2023-05-07T10:37:55;12.90;99.90
2523;DHT22;1272;53.332;9.860;2023-05-07T10:40:21;12.90;1.00
2523;DHT22;1272;53.332;9.860;2023-05-07T10:42:57;12.80;1.00
2523;DHT22;1272;53.332;9.860;2023-05-07T10:45:25;12.70;99.90
2523;DHT22;1272;53.332;9.860;2023-05-07T10:48:20;12.70;99.90
2523;DHT22;1272;53.332;9.860;2023-05-07T10:50:46;12.80;99.90
2523;DHT22;1272;53.332;9.860;2023-05-07T10:55:46;12.90;99.90
2523;DHT22;1272;53.332;9.860;2023-05-07T11:00:47;13.00;1.00
2523;DHT22;1272;53.332;9.860;2023-05-07T11:03:15;13.10;1.00
2523;DHT22;1272;53.332;9.860;2023-05-07T11:05:43;13.10;1.00
2523;DHT22;1272;53.332;9.860;2023-05-07T11:08:09;13.10;1.00
2523;DHT22;1272;53.332;9.860;2023-05-07T11:10:55;13.20;1.00
2523;DHT22;1272;53.332;9.860;2023-05-07T11:13:47;13.40;1.00
2523;DHT22;1272;53.332;9.860;2023-05-07T11:16:24;13.50;99.90
2523;DHT22;1272;53.332;9.860;2023-05-07T11:18:55;13.60;99.90
2523;DHT22;1272;53.332;9.860;2023-05-07T11:21:43;13.80;55.00
2523;DHT22;1272;53.332;9.860;2023-05-07T11:24:09;13.70;99.90
2523;DHT22;1272;53.332;9.860;2023-05-07T11:26:49;13.70;1.00
2523;DHT22;1272;53.332;9.860;2023-05-07T11:29:20;13.60;1.00
2523;DHT22;1272;53.332;9.860;2023-05-07T11:31:50;13.50;16.70
2523;DHT22;1272;53.332;9.860;2023-05-07T11:34:21;13.50;99.90
2523;DHT22;1272;53.332;9.860;2023-05-07T11:36:48;13.60;99.90
2523;DHT22;1272;53.332;9.860;2023-05-07T11:39:25;13.80;1.00
2523;DHT22;1272;53.332;9.860;2023-05-07T11:41:50;13.90;1.00
2523;DHT22;1272;53.332;9.860;2023-05-07T11:44:16;14.10;1.00
2523;DHT22;1272;53.332;9.860;2023-05-07T11:46:45;14.20;99.90
2523;DHT22;1272;53.332;9.860;2023-05-07T11:49:11;14.10;99.90
2523;DHT22;1272;53.332;9.860;2023-05-07T11:51:37;14.10;99.90
2523;DHT22;1272;53.332;9.860;2023-05-07T11:54:05;14.10;99.90
2523;DHT22;1272;53.332;9.860;2023-05-07T11:56:34;14.00;1.00
2523;DHT22;1272;53.332;9.860;2023-05-07T11:59:02;14.00;99.90
2523;DHT22;1272;53.332;9.860;2023-05-07T12:01:28;14.00;99.90
2523;DHT22;1272;53.332;9.860;2023-05-07T12:03:53;14.00;99.90
2523;DHT22;1272;53.332;9.860;2023-05-07T12:06:19;14.10;99.90
2523;DHT22;1272;53.332;9.860;2023-05-07T12:08:46;14.10;28.00
2523;DHT22;1272;53.332;9.860;2023-05-07T12:11:23;14.20;99.90
2523;DHT22;1272;53.332;9.860;2023-05-07T12:13:49;14.20;1.00
2523;DHT22;1272;53.332;9.860;2023-05-07T12:16:14;14.40;1.00
2523;DHT22;1272;53.332;9.860;2023-05-07T12:18:40;14.60;1.00
2523;DHT22;1272;53.332;9.860;2023-05-07T12:21:07;14.90;1.00
2523;DHT22;1272;53.332;9.860;2023-05-07T12:23:35;15.00;99.90
2523;DHT22;1272;53.332;9.860;2023-05-07T12:26:01;15.10;99.90
2523;DHT22;1272;53.332;9.860;2023-05-07T12:28:27;15.20;80.60
2523;DHT22;1272;53.332;9.860;2023-05-07T12:30:53;15.20;99.90
2523;DHT22;1272;53.332;9.860;2023-05-07T12:33:24;15.40;99.90
2523;DHT22;1272;53.332;9.860;2023-05-07T12:35:50;15.80;99.90
2523;DHT22;1272;53.332;9.860;2023-05-07T12:38:17;16.20;1.00
2523;DHT22;1272;53.332;9.860;2023-05-07T12:40:47;16.40;1.00
2523;DHT22;1272;53.332;9.860;2023-05-07T12:43:25;16.60;1.00
2523;DHT22;1272;53.332;9.860;2023-05-07T12:45:52;16.50;1.00
2523;DHT22;1272;53.332;9.860;2023-05-07T12:48:19;16.50;1.00
2523;DHT22;1272;53.332;9.860;2023-05-07T12:50:48;16.50;1.00
2523;DHT22;1272;53.332;9.860;2023-05-07T12:53:14;16.70;1.00
2523;DHT22;1272;53.332;9.860;2023-05-07T12:55:45;16.90;99.90
2523;DHT22;1272;53.332;9.860;2023-05-07T12:58:32;17.10;1.00
2523;DHT22;1272;53.332;9.860;2023-05-07T13:01:00;17.20;99.90
2523;DHT22;1272;53.332;9.860;2023-05-07T13:03:30;17.60;1.00
2523;DHT22;1272;53.332;9.860;2023-05-07T13:06:07;17.90;99.90
2523;DHT22;1272;53.332;9.860;2023-05-07T13:08:40;18.20;99.90
2523;DHT22;1272;53.332;9.860;2023-05-07T13:11:09;18.10;99.90
2523;DHT22;1272;53.332;9.860;2023-05-07T13:13:36;18.20;99.90
2523;DHT22;1272;53.332;9.860;2023-05-07T13:16:03;18.30;99.90
2523;DHT22;1272;53.332;9.860;2023-05-07T13:18:30;18.50;99.90
2523;DHT22;1272;53.332;9.860;2023-05-07T13:20:57;18.60;99.90
2523;DHT22;1272;53.332;9.860;2023-05-07T13:23:23;18.70;99.90
2523;DHT22;1272;53.332;9.860;2023-05-07T13:25:49;18.80;99.90
2523;DHT22;1272;53.332;9.860;2023-05-07T13:28:16;19.00;99.90
2523;DHT22;1272;53.332;9.860;2023-05-07T13:30:41;19.10;94.80
2523;DHT22;1272;53.332;9.860;2023-05-07T13:33:08;19.30;70.00
2523;DHT22;1272;53.332;9.860;2023-05-07T13:35:34;19.40;77.30
2523;DHT22;1272;53.332;9.860;2023-05-07T13:38:00;19.70;47.10
2523;DHT22;1272;53.332;9.860;2023-05-07T13:40:26;19.80;1.00
2523;DHT22;1272;53.332;9.860;2023-05-07T13:42:51;19.60;1.00
2523;DHT22;1272;53.332;9.860;2023-05-07T13:45:20;19.50;1.00
2523;DHT22;1272;53.332;9.860;2023-05-07T13:47:46;19.60;13.60
2523;DHT22;1272;53.332;9.860;2023-05-07T13:50:12;19.50;1.00
2523;DHT22;1272;53.332;9.860;2023-05-07T13:52:42;19.30;1.00
2523;DHT22;1272;53.332;9.860;2023-05-07T13:55:09;19.00;1.00
2523;DHT22;1272;53.332;9.860;2023-05-07T13:57:36;18.70;12.40
2523;DHT22;1272;53.332;9.860;2023-05-07T14:00:03;18.40;65.40
2523;DHT22;1272;53.332;9.860;2023-05-07T14:02:30;18.30;71.20
2523;DHT22;1272;53.332;9.860;2023-05-07T14:04:56;18.10;63.30
2523;DHT22;1272;53.332;9.860;2023-05-07T14:07:22;18.10;91.70
2523;DHT22;1272;53.332;9.860;2023-05-07T14:09:47;18.00;99.90
2523;DHT22;1272;53.332;9.860;2023-05-07T14:12:13;18.10;99.90
2523;DHT22;1272;53.332;9.860;2023-05-07T14:14:39;18.20;99.90
2523;DHT22;1272;53.332;9.860;2023-05-07T14:17:07;18.10;81.70
2523;DHT22;1272;53.332;9.860;2023-05-07T14:19:33;18.00;97.10
2523;DHT22;1272;53.332;9.860;2023-05-07T14:21:59;18.10;99.90
2523;DHT22;1272;53.332;9.860;2023-05-07T14:24:25;18.00;81.80
2523;DHT22;1272;53.332;9.860;2023-05-07T14:26:51;18.00;93.00
2523;DHT22;1272;53.332;9.860;2023-05-07T14:29:17;18.30;96.70
2523;DHT22;1272;53.332;9.860;2023-05-07T14:31:44;18.30;86.80
2523;DHT22;1272;53.332;9.860;2023-05-07T14:34:11;18.20;38.30
2523;DHT22;1272;53.332;9.860;2023-05-07T14:36:36;18.10;66.60
2523;DHT22;1272;53.332;9.860;2023-05-07T14:39:03;17.90;82.10
2523;DHT22;1272;53.332;9.860;2023-05-07T14:41:29;17.80;93.70
2523;DHT22;1272;53.332;9.860;2023-05-07T14:43:55;17.70;70.20
2523;DHT22;1272;53.332;9.860;2023-05-07T14:46:21;17.60;99.90
2523;DHT22;1272;53.332;9.860;2023-05-07T14:48:47;17.60;99.60
2523;DHT22;1272;53.332;9.860;2023-05-07T14:51:13;17.60;99.90
2523;DHT22;1272;53.332;9.860;2023-05-07T14:53:40;17.50;99.90
2523;DHT22;1272;53.332;9.860;2023-05-07T14:56:06;17.30;99.90
2523;DHT22;1272;53.332;9.860;2023-05-07T14:58:33;17.30;99.90
2523;DHT22;1272;53.332;9.860;2023-05-07T15:00:59;17.30;99.90
2523;DHT22;1272;53.332;9.860;2023-05-07T15:03:25;17.30;99.90
2523;DHT22;1272;53.332;9.860;2023-05-07T15:05:51;17.10;99.90
2523;DHT22;1272;53.332;9.860;2023-05-07T15:08:20;17.00;99.90
2523;DHT22;1272;53.332;9.860;2023-05-07T15:10:45;16.80;99.90
2523;DHT22;1272;53.332;9.860;2023-05-07T15:13:12;16.80;99.90
2523;DHT22;1272;53.332;9.860;2023-05-07T15:15:42;16.80;99.90
2523;DHT22;1272;53.332;9.860;2023-05-07T15:18:09;16.90;99.90
2523;DHT22;1272;53.332;9.860;2023-05-07T15:20:35;17.00;99.90
2523;DHT22;1272;53.332;9.860;2023-05-07T15:23:01;17.00;99.90
2523;DHT22;1272;53.332;9.860;2023-05-07T15:25:28;17.00;99.90
2523;DHT22;1272;53.332;9.860;2023-05-07T15:27:53;16.90;99.90
2523;DHT22;1272;53.332;9.860;2023-05-07T15:30:19;16.90;99.90
2523;DHT22;1272;53.332;9.860;2023-05-07T15:32:45;16.80;99.90
2523;DHT22;1272;53.332;9.860;2023-05-07T15:35:11;16.80;99.90
2523;DHT22;1272;53.332;9.860;2023-05-07T15:37:37;17.10;99.90
2523;DHT22;1272;53.332;9.860;2023-05-07T15:40:03;17.20;99.90
2523;DHT22;1272;53.332;9.860;2023-05-07T15:42:31;17.30;99.90
2523;DHT22;1272;53.332;9.860;2023-05-07T15:44:56;17.40;99.90
2523;DHT22;1272;53.332;9.860;2023-05-07T15:47:22;17.40;99.90
2523;DHT22;1272;53.332;9.860;2023-05-07T15:49:48;17.50;99.90
2523;DHT22;1272;53.332;9.860;2023-05-07T15:52:13;17.60;99.90
2523;DHT22;1272;53.332;9.860;2023-05-07T15:54:40;17.70;99.90
2523;DHT22;1272;53.332;9.860;2023-05-07T15:57:06;17.90;99.90
2523;DHT22;1272;53.332;9.860;2023-05-07T15:59:32;17.90;99.90
2523;DHT22;1272;53.332;9.860;2023-05-07T16:01:58;18.30;98.80
2523;DHT22;1272;53.332;9.860;2023-05-07T16:04:24;18.60;70.80
2523;DHT22;1272;53.332;9.860;2023-05-07T16:06:50;18.90;28.70
2523;DHT22;1272;53.332;9.860;2023-05-07T16:09:16;19.20;15.80
2523;DHT22;1272;53.332;9.860;2023-05-07T16:11:42;19.40;1.00
2523;DHT22;1272;53.332;9.860;2023-05-07T16:14:08;19.60;1.00
2523;DHT22;1272;53.332;9.860;2023-05-07T16:16:35;19.80;1.00